Paxson, AK

4:39 PM AKDT on April 26, 2015 (GMT -0800)
Allen Army Air Field | | Change Station
CLOSE
Current Station
Airport
Location: Big Delta,
Elevation: 1306 ft
Nearby Weather Stations

Elev 1306 ft 63.99 °N, 145.72 °W | Updated 46 minutes ago

Mostly Cloudy
Mostly Cloudy
54 °F
Feels Like 54 °F
N
4
Wind Variable Wind from Variable

Today
High -- | Low -- °F
--% Chance of Precip.
Yesterday
High -- | Low -- °F
Precip. -- in
5:32 AM 9:49 PM
First Quarter, 60% visible
Pressure 29.66 in
Visibility 10.0 miles
Clouds Scattered Clouds 7000 ft
Scattered Clouds 10000 ft
Mostly Cloudy 20000 ft
Dew Point 23 °F
Humidity 30%
Rainfall 0.00 in
Snow Depth Not available.
UV 2 out of 12
Pollen Not available.
Air Quality Not available.
Flu Activity Sporadic
METAR PABI 262353Z VRB03KT 10SM SCT070 SCT100 BKN200 12/M05 A2962 RMK AO2 SLP043 T01221050 10122 20050 56019

More Conditions Fewer Conditions

Pressure 29.66 in
Visibility 10.0 miles
Clouds Scattered Clouds 7000 ft
Scattered Clouds 10000 ft
Mostly Cloudy 20000 ft
Dew Point 23 °F
Humidity 30%
Rainfall 0.00 in
Snow Depth Not available.
UV 2 out of 12
Pollen Not available.
Air Quality Not available.
Flu Activity Sporadic
METAR PABI 262353Z VRB03KT 10SM SCT070 SCT100 BKN200 12/M05 A2962 RMK AO2 SLP043 T01221050 10122 20050 56019

More Conditions Fewer Conditions

10-Day Weather Forecast

Almanac

Astronomy

Apr. 26, 2015 Rise Set
Actual Time
Civil Twilight
Nautical Twilight
Astronomical Twilight
Moon
Length of Visible Light
Length of Day
Tomorrow will be .
, % of the Moon is Illuminated

Today's Extremes

State Highs State Lows

Community

WunderPhotos

Upload Photos

1,817,176 photos uploaded!

WunderBlogs® & News

Nearby

Air Quality

  Air Quality AQ Index Pollutant
Not available.

Snow Depth

Station Depth Elevation

Earthquake Activity

City Distance Mag. Time & Date
Minimum magnitude displayed is 2.5.

Coastal Water Temperatures

Place Temperature

Stations

Nearby Weather Stations

Station Location Temp. Windchill Dew Point Humidity Wind Precip. Elev Updated Type